Time;durP1;ratioP1;P1;durP2;ratioP2;P2;SDS_P1;SDS_P2;PMS_P1;PMS_P2;Temp;Humidity;BMP_temperature;BMP_pressure;BME280_temperature;BME280_humidity;BME280_pressure;Samples;Min_cycle;Max_cycle;Signal;HPM_P1;HPM_P2
2023/05/29 00:00:20;;;;;;;10.13;6.70;;;;;;;17.38;91.19;101102.88;4974229;28;20407;-81
2023/05/29 00:02:46;;;;;;;9.10;6.22;;;;;;;17.44;91.14;101125.16;4974898;28;20026;-81
2023/05/29 00:05:12;;;;;;;12.77;6.38;;;;;;;17.47;91.10;101131.00;4974064;28;20500;-80
2023/05/29 00:07:38;;;;;;;10.35;6.55;;;;;;;17.47;91.41;101136.25;4973951;28;20077;-81
2023/05/29 00:10:05;;;;;;;7.35;5.55;;;;;;;17.46;91.20;101129.34;4957962;28;20030;-80
2023/05/29 00:12:30;;;;;;;9.00;5.43;;;;;;;17.44;91.14;101126.00;4958004;28;20019;-81
2023/05/29 00:14:57;;;;;;;9.98;5.20;;;;;;;17.40;91.86;101129.78;4990233;28;20023;-81
2023/05/29 00:17:22;;;;;;;7.97;5.68;;;;;;;17.35;91.06;101124.03;4974382;28;20038;-81
2023/05/29 00:19:48;;;;;;;8.02;5.13;;;;;;;17.37;90.50;101132.59;4957750;28;20027;-81
2023/05/29 00:22:13;;;;;;;10.48;5.07;;;;;;;17.29;90.93;101132.28;4974018;28;21444;-80
2023/05/29 00:24:39;;;;;;;8.65;5.85;;;;;;;17.12;92.11;101106.50;4993460;28;20038;-80
2023/05/29 00:27:04;;;;;;;9.60;6.22;;;;;;;17.25;92.09;101135.22;4994321;28;20034;-80
2023/05/29 00:29:30;;;;;;;14.02;6.47;;;;;;;17.21;92.62;101126.78;4994972;28;20033;-80
2023/05/29 00:31:56;;;;;;;13.48;8.00;;;;;;;17.27;92.24;101136.78;4977579;28;20035;-80
2023/05/29 00:34:22;;;;;;;15.70;8.93;;;;;;;17.27;91.73;101136.78;4977464;28;20110;-81
2023/05/29 00:36:48;;;;;;;13.10;8.75;;;;;;;17.18;91.40;101121.72;4961637;28;20034;-80
2023/05/29 00:39:13;;;;;;;12.80;8.65;;;;;;;17.27;91.20;101139.41;4977646;28;20034;-81
2023/05/29 00:41:39;;;;;;;16.05;8.30;;;;;;;17.27;91.42;101154.25;4994084;28;20038;-80
2023/05/29 00:44:04;;;;;;;18.95;8.48;;;;;;;17.17;91.21;101138.38;4976992;28;20031;-80
2023/05/29 00:46:30;;;;;;;17.52;8.73;;;;;;;17.17;91.09;101146.22;4977480;28;20034;-81
2023/05/29 00:48:56;;;;;;;14.25;8.32;;;;;;;17.07;91.83;101126.88;4961413;28;20610;-80
2023/05/29 00:51:21;;;;;;;13.48;8.60;;;;;;;17.09;92.35;101125.81;4977336;28;20037;-80
2023/05/29 00:53:47;;;;;;;14.43;8.85;;;;;;;17.21;91.91;101126.78;4961256;28;20034;-80
2023/05/29 00:56:12;;;;;;;11.20;7.60;;;;;;;17.27;92.08;101134.19;4961122;28;20628;-80
2023/05/29 00:58:37;;;;;;;13.15;6.75;;;;;;;17.22;91.96;101133.66;4976923;28;20081;-81
2023/05/29 01:01:03;;;;;;;15.95;7.00;;;;;;;17.25;91.97;101130.00;4977259;28;20022;-81
2023/05/29 01:03:28;;;;;;;12.02;6.78;;;;;;;17.10;92.11;101110.97;4977458;28;20035;-81
2023/05/29 01:05:54;;;;;;;8.90;6.03;;;;;;;17.05;92.46;101103.44;4960990;28;20084;-81
2023/05/29 01:08:20;;;;;;;10.35;6.13;;;;;;;17.30;91.73;101130.50;4976882;28;20110;-81
2023/05/29 01:10:45;;;;;;;9.15;5.70;;;;;;;17.32;90.73;101121.63;4976853;28;20065;-82
2023/05/29 01:13:19;;;;;;;8.98;5.93;;;;;;;17.37;90.15;101127.38;4976832;28;20113;-81
2023/05/29 01:15:58;;;;;;;7.97;5.38;;;;;;;17.34;89.48;101116.28;4960879;28;20550;-80
2023/05/29 01:18:46;;;;;;;7.20;4.57;;;;;;;17.26;90.12;101123.81;4978335;28;20034;-81
2023/05/29 01:21:26;;;;;;;7.90;4.80;;;;;;;17.09;90.03;101119.75;4993079;28;20018;-80
2023/05/29 01:24:13;;;;;;;7.40;5.18;;;;;;;17.14;90.42;101126.34;4993058;28;20113;-80
2023/05/29 01:26:53;;;;;;;8.48;4.93;;;;;;;17.09;90.47;101120.59;4992973;28;20037;-81
2023/05/29 01:29:25;;;;;;;11.35;5.75;;;;;;;17.17;89.96;101112.22;4992778;28;20031;-80
2023/05/29 01:31:51;;;;;;;7.07;5.13;;;;;;;17.14;90.79;101113.28;4992661;28;20178;-81
2023/05/29 01:34:17;;;;;;;8.05;5.53;;;;;;;17.03;90.49;101094.88;4960605;28;20457;-80
2023/05/29 01:36:42;;;;;;;9.27;5.32;;;;;;;17.14;89.65;101108.03;4992186;28;20031;-81
2023/05/29 01:39:08;;;;;;;9.80;5.05;;;;;;;17.08;90.02;101118.06;4976220;28;20038;-80
2023/05/29 01:41:33;;;;;;;8.15;5.10;;;;;;;17.03;90.18;101109.72;4975949;28;20033;-80
2023/05/29 01:43:59;;;;;;;7.82;4.80;;;;;;;17.10;90.67;101110.97;4976491;28;20034;-81
2023/05/29 01:46:27;;;;;;;7.03;4.82;;;;;;;17.09;91.36;101112.75;4976467;28;20030;-80
2023/05/29 01:48:54;;;;;;;9.45;4.95;;;;;;;17.12;91.58;101104.72;4976569;28;20422;-80
2023/05/29 01:51:19;;;;;;;11.10;5.65;;;;;;;17.22;91.29;101111.91;4976176;28;20467;-81
2023/05/29 01:53:45;;;;;;;8.75;5.22;;;;;;;17.07;91.31;101105.94;4992357;28;21120;-81
2023/05/29 01:56:10;;;;;;;7.05;4.60;;;;;;;16.96;91.84;101093.63;4959647;28;20062;-82
2023/05/29 01:58:36;;;;;;;8.43;5.22;;;;;;;17.05;91.96;101115.69;4976358;28;20030;-80
2023/05/29 02:01:03;;;;;;;8.02;5.18;;;;;;;17.00;91.73;101102.91;4992159;28;20516;-80
2023/05/29 02:03:29;;;;;;;13.70;5.35;;;;;;;17.01;91.58;101106.34;4976348;28;20038;-82
2023/05/29 02:05:57;;;;;;;8.25;4.78;;;;;;;16.92;91.31;101093.00;4992096;28;20052;-80
2023/05/29 02:08:23;;;;;;;6.90;4.60;;;;;;;17.02;91.33;101108.06;4993408;28;20057;-81
2023/05/29 02:10:48;;;;;;;7.65;4.55;;;;;;;17.01;91.53;101104.63;4991913;28;20491;-81
2023/05/29 02:13:14;;;;;;;6.18;4.15;;;;;;;17.01;91.19;101116.81;4959798;28;20034;-80
2023/05/29 02:15:40;;;;;;;6.60;4.65;;;;;;;16.95;91.69;101101.56;4975941;28;20026;-81
2023/05/29 02:18:08;;;;;;;6.15;4.28;;;;;;;17.00;91.82;101104.69;4992001;28;20034;-81
2023/05/29 02:20:34;;;;;;;8.40;4.78;;;;;;;17.05;92.55;101106.06;4991857;28;20507;-82
2023/05/29 02:22:59;;;;;;;7.65;5.03;;;;;;;16.97;92.48;101097.91;4991970;28;20030;-82
2023/05/29 02:25:25;;;;;;;7.00;4.43;;;;;;;17.10;92.37;101111.78;4991782;28;20030;-80
2023/05/29 02:27:50;;;;;;;9.90;4.72;;;;;;;17.12;91.87;101109.94;4975542;28;20030;-80
2023/05/29 02:30:16;;;;;;;6.28;4.07;;;;;;;16.95;92.05;101091.94;4975347;28;20034;-81
2023/05/29 02:32:41;;;;;;;7.13;3.90;;;;;;;17.08;92.42;101121.53;4992648;28;20030;-80
2023/05/29 02:35:07;;;;;;;8.13;4.55;;;;;;;17.04;92.27;101117.47;4975457;28;20026;-80
2023/05/29 02:37:32;;;;;;;8.93;4.50;;;;;;;17.07;92.24;101113.78;4991613;28;20041;-80
2023/05/29 02:39:58;;;;;;;7.78;4.30;;;;;;;17.01;92.32;101117.69;4991278;28;20030;-80
2023/05/29 02:42:23;;;;;;;5.82;3.85;;;;;;;16.76;92.20;101075.84;4991271;28;20030;-80
2023/05/29 02:44:48;;;;;;;6.85;4.63;;;;;;;17.02;92.08;101121.97;4975255;28;20027;-81
2023/05/29 02:47:14;;;;;;;8.68;4.97;;;;;;;16.95;92.05;101119.88;4990454;28;20022;-81
2023/05/29 02:49:39;;;;;;;9.55;3.47;;;;;;;16.90;92.38;101125.38;4991189;28;20030;-81
2023/05/29 02:52:05;;;;;;;6.25;3.92;;;;;;;16.90;92.37;101126.22;4991141;28;20034;-81
2023/05/29 02:54:31;;;;;;;6.75;4.35;;;;;;;16.78;92.53;101111.38;4958550;28;20050;-81
2023/05/29 02:56:56;;;;;;;8.13;4.72;;;;;;;16.98;91.76;101130.09;4991151;28;20034;-80
2023/05/29 02:59:22;;;;;;;6.45;4.00;;;;;;;16.93;91.60;101125.19;4958930;28;20079;-81
2023/05/29 03:01:48;;;;;;;6.10;4.25;;;;;;;16.83;91.45;101118.91;4975064;28;20511;-80
2023/05/29 03:04:14;;;;;;;5.93;3.63;;;;;;;16.80;92.33;101125.16;4975015;28;20038;-83
2023/05/29 03:06:39;;;;;;;7.15;4.35;;;;;;;16.83;91.93;101118.91;4958883;28;20022;-79
2023/05/29 03:09:05;;;;;;;7.05;4.40;;;;;;;16.85;91.38;101115.25;4990884;28;20451;-81
2023/05/29 03:11:31;;;;;;;7.07;3.95;;;;;;;16.88;91.56;101117.66;4991318;28;20026;-79
2023/05/29 03:13:56;;;;;;;7.82;4.68;;;;;;;16.84;91.51;101121.41;4974814;28;20121;-79
2023/05/29 03:16:22;;;;;;;8.15;4.97;;;;;;;16.82;90.91;101117.25;4974730;28;20554;-80
2023/05/29 03:18:47;;;;;;;6.45;4.43;;;;;;;16.82;90.19;101118.09;4990848;28;20035;-80
2023/05/29 03:21:13;;;;;;;6.70;4.00;;;;;;;16.89;89.77;101118.47;4974695;28;20077;-80
2023/05/29 03:23:38;;;;;;;6.47;4.60;;;;;;;16.81;90.00;101116.41;4974160;28;20035;-80
2023/05/29 03:26:05;;;;;;;7.15;4.88;;;;;;;16.80;90.63;101135.63;4991137;28;20511;-79
2023/05/29 03:28:31;;;;;;;5.97;4.32;;;;;;;16.66;91.04;101104.31;4974657;28;20030;-79
2023/05/29 03:30:56;;;;;;;6.20;3.88;;;;;;;16.79;90.45;101118.25;4991935;28;20037;-79
2023/05/29 03:33:22;;;;;;;7.70;4.80;;;;;;;16.79;90.85;101135.72;4960874;28;20454;-79
2023/05/29 03:35:47;;;;;;;6.10;4.50;;;;;;;16.83;90.82;101131.97;4974147;28;20022;-78
2023/05/29 03:38:12;;;;;;;7.30;4.72;;;;;;;16.63;90.29;101094.94;4989339;28;20034;-82
2023/05/29 03:40:38;;;;;;;6.10;3.95;;;;;;;16.83;90.32;101129.38;4989885;28;20042;-79
2023/05/29 03:43:03;;;;;;;7.18;4.70;;;;;;;16.92;89.62;101120.91;4991664;28;20041;-79
2023/05/29 03:45:29;;;;;;;5.75;3.92;;;;;;;16.94;89.28;101133.88;4990354;28;20022;-80
2023/05/29 03:47:55;;;;;;;4.88;3.67;;;;;;;16.94;90.02;101134.72;4991549;28;20420;-79
2023/05/29 03:50:20;;;;;;;7.25;4.15;;;;;;;16.92;90.38;101134.81;4973950;28;20041;-80
2023/05/29 03:52:45;;;;;;;7.25;4.25;;;;;;;16.90;90.80;101134.06;4989896;28;20018;-79
2023/05/29 03:55:14;;;;;;;6.50;4.28;;;;;;;16.82;90.49;101115.47;4973841;28;20046;-79
2023/05/29 03:57:40;;;;;;;6.68;4.35;;;;;;;17.06;90.14;101151.34;4974057;28;20080;-78
2023/05/29 04:00:10;;;;;;;8.13;4.80;;;;;;;17.08;90.14;101144.22;4971594;28;20112;-79
2023/05/29 04:02:37;;;;;;;18.23;4.35;;;;;;;17.15;90.46;101151.53;4988943;28;20030;-79
2023/05/29 04:05:03;;;;;;;6.65;4.10;;;;;;;17.20;89.86;101161.69;4989105;28;20519;-78
2023/05/29 04:07:29;;;;;;;10.18;4.90;;;;;;;17.19;88.95;101163.47;4972545;28;20023;-80
2023/05/29 04:09:54;;;;;;;9.00;4.72;;;;;;;17.21;89.31;101166.00;4990932;28;20038;-80
2023/05/29 04:12:20;;;;;;;10.48;4.68;;;;;;;17.28;90.33;101177.69;4989067;28;20049;-80
2023/05/29 04:14:45;;;;;;;6.22;3.95;;;;;;;17.42;88.95;101171.53;4980989;28;20023;-86
2023/05/29 04:17:10;;;;;;;13.50;6.13;;;;;;;17.61;87.99;101176.31;4969933;28;20038;-84
2023/05/29 04:19:36;;;;;;;9.27;5.80;;;;;;;17.70;87.83;101162.63;4976493;28;20034;-86
2023/05/29 04:22:01;;;;;;;7.90;4.78;;;;;;;17.82;87.19;101182.69;4972572;28;20031;-80
2023/05/29 04:24:27;;;;;;;10.07;5.18;;;;;;;17.70;87.28;101163.47;4983592;28;20411;-80
2023/05/29 04:26:52;;;;;;;7.57;4.85;;;;;;;17.65;87.77;101168.13;4990603;28;20049;-79
2023/05/29 04:29:19;;;;;;;10.40;4.95;;;;;;;17.61;87.53;101174.53;4982651;28;20031;-80
2023/05/29 04:31:44;;;;;;;9.13;4.72;;;;;;;17.67;86.57;101176.72;4990561;28;20519;-79
2023/05/29 04:34:10;;;;;;;7.60;3.95;;;;;;;17.71;86.39;101180.00;4974014;28;20031;-86
2023/05/29 04:36:38;;;;;;;7.07;4.97;;;;;;;17.54;87.02;101165.44;4979136;28;20061;-87
2023/05/29 04:39:05;;;;;;;7.15;4.90;;;;;;;17.69;87.41;101176.59;4995459;28;20025;-86
2023/05/29 04:41:30;;;;;;;10.40;5.68;;;;;;;17.76;87.80;101185.75;4977828;28;20467;-87
2023/05/29 04:43:56;;;;;;;9.23;6.20;;;;;;;17.82;87.55;101187.09;4993083;28;20491;-84
2023/05/29 04:46:25;;;;;;;8.13;5.10;;;;;;;17.81;86.05;101188.88;4988168;28;20041;-87
2023/05/29 04:48:53;;;;;;;8.80;4.80;;;;;;;17.72;86.16;101197.38;4970225;28;20031;-87
2023/05/29 04:51:22;;;;;;;10.68;4.95;;;;;;;17.83;86.20;101189.59;4973977;28;20035;-83
2023/05/29 04:53:48;;;;;;;7.68;4.80;;;;;;;17.80;86.27;101189.84;4968294;28;20023;-86
2023/05/29 04:56:14;;;;;;;8.00;5.05;;;;;;;17.63;86.79;101161.34;4943628;28;20100;-87
2023/05/29 04:58:40;;;;;;;7.47;4.90;;;;;;;17.76;87.83;101183.97;5005508;28;20022;-87
2023/05/29 05:01:07;;;;;;;7.85;4.68;;;;;;;17.87;87.44;101191.03;4990611;28;20377;-88
2023/05/29 05:03:33;;;;;;;9.05;4.72;;;;;;;17.95;86.56;101200.97;4970627;28;20095;-91
2023/05/29 05:06:00;;;;;;;8.00;5.10;;;;;;;17.99;86.75;101205.91;4991542;28;20030;-94
2023/05/29 05:08:25;;;;;;;8.35;4.95;;;;;;;17.89;86.11;101204.03;4974824;28;20536;-91
2023/05/29 05:10:50;;;;;;;8.00;6.00;;;;;;;17.91;86.86;101207.41;4961911;28;20026;-92
2023/05/29 05:13:16;;;;;;;8.38;5.38;;;;;;;17.85;86.66;101192.94;4992219;28;20038;-94
2023/05/29 05:15:41;;;;;;;19.02;6.60;;;;;;;17.90;86.82;101203.94;4978161;28;20507;-86
2023/05/29 05:18:07;;;;;;;9.50;5.78;;;;;;;17.95;87.50;101209.66;4974937;28;20515;-86
2023/05/29 05:20:32;;;;;;;14.32;5.95;;;;;;;18.12;86.78;101220.75;4991681;28;20097;-89
2023/05/29 05:22:59;;;;;;;13.35;6.38;;;;;;;18.13;86.71;101222.41;4968418;28;20381;-88
2023/05/29 05:25:25;;;;;;;10.07;5.93;;;;;;;18.11;84.61;101219.06;4981884;28;20022;-87
2023/05/29 05:27:50;;;;;;;8.63;5.15;;;;;;;18.11;85.72;101219.06;4987151;28;20129;-87
2023/05/29 05:30:16;;;;;;;8.50;5.63;;;;;;;18.25;85.14;101218.91;4992137;28;20037;-90
2023/05/29 05:32:41;;;;;;;10.48;6.65;;;;;;;18.31;84.65;101223.72;4960736;28;20039;-87
2023/05/29 05:35:10;;;;;;;11.15;5.68;;;;;;;18.24;85.10;101218.06;4979530;28;20104;-86
2023/05/29 05:37:35;;;;;;;12.63;5.68;;;;;;;18.12;84.04;101202.41;4990515;28;20582;-89
2023/05/29 05:40:01;;;;;;;8.40;5.40;;;;;;;18.24;84.31;101215.47;4992060;28;20023;-92
2023/05/29 05:42:26;;;;;;;10.05;5.78;;;;;;;18.37;84.75;101225.88;4990962;28;20034;-90
2023/05/29 05:44:52;;;;;;;13.93;6.80;;;;;;;18.47;83.97;101224.28;4990553;28;20400;-90
2023/05/29 05:47:18;;;;;;;9.90;6.32;;;;;;;18.53;84.79;101221.22;4973272;28;20027;-87
2023/05/29 05:49:43;;;;;;;11.23;6.63;;;;;;;18.51;84.61;101206.56;4974194;28;20049;-92
2023/05/29 05:52:08;;;;;;;11.80;6.30;;;;;;;18.53;84.33;101215.97;4988360;28;20034;-88
2023/05/29 05:54:34;;;;;;;13.82;5.88;;;;;;;18.63;84.66;101210.91;4984804;28;20112;-89
2023/05/29 05:57:00;;;;;;;11.20;6.45;;;;;;;18.75;84.64;101230.16;4975701;28;20031;-83
2023/05/29 05:59:25;;;;;;;10.05;6.03;;;;;;;18.79;83.79;101229.00;4991731;28;20141;-89
2023/05/29 06:01:51;;;;;;;10.45;5.72;;;;;;;18.72;84.23;101210.25;4991056;28;20496;-89
2023/05/29 06:04:18;;;;;;;8.98;5.80;;;;;;;18.78;82.70;101220.31;4987908;28;20035;-94
2023/05/29 06:06:44;;;;;;;11.00;5.93;;;;;;;18.90;81.82;101235.13;5004636;28;20025;-93
2023/05/29 06:09:11;;;;;;;9.25;5.32;;;;;;;18.92;79.17;101222.72;4976175;28;20484;-93
2023/05/29 06:11:37;;;;;;;8.13;5.05;;;;;;;18.88;80.26;101209.97;4989737;28;20097;-94
2023/05/29 06:14:03;;;;;;;9.52;5.30;;;;;;;19.07;80.08;101230.38;4973251;28;20108;-85
2023/05/29 06:16:29;;;;;;;11.20;5.50;;;;;;;19.15;80.37;101226.22;4973039;28;20030;-85
2023/05/29 06:18:55;;;;;;;11.85;5.78;;;;;;;19.20;80.58;101225.91;4974589;28;20128;-90
2023/05/29 06:21:20;;;;;;;8.38;5.05;;;;;;;19.24;78.82;101223.88;4971695;28;20038;-88
2023/05/29 06:23:46;;;;;;;8.10;5.82;;;;;;;19.36;78.74;101231.63;4976873;28;20034;-88
2023/05/29 06:26:12;;;;;;;9.35;5.30;;;;;;;19.40;78.86;101225.22;4977589;28;20089;-92
2023/05/29 06:28:37;;;;;;;7.55;5.32;;;;;;;19.48;77.59;101238.59;4991870;28;20022;-89
2023/05/29 06:31:03;;;;;;;8.35;5.00;;;;;;;19.28;77.38;101206.97;4992467;28;20030;-86
2023/05/29 06:33:29;;;;;;;7.93;4.60;;;;;;;19.54;76.16;101239.91;4989489;28;20495;-87
2023/05/29 06:35:55;;;;;;;52.28;24.67;;;;;;;19.75;76.56;101242.69;4977279;28;20137;-87
2023/05/29 06:38:21;;;;;;;11.27;7.38;;;;;;;20.00;76.45;101244.22;4988641;28;20141;-87
2023/05/29 06:40:46;;;;;;;40.13;23.15;;;;;;;20.12;75.55;101239.81;4974026;28;20449;-90
2023/05/29 06:43:11;;;;;;;7.20;5.32;;;;;;;20.17;73.65;101242.91;4991896;28;20030;-95
2023/05/29 06:45:37;;;;;;;18.25;9.45;;;;;;;20.19;73.78;101252.34;4995072;28;20420;-84
2023/05/29 06:48:03;;;;;;;9.57;6.22;;;;;;;19.98;72.95;101233.03;4954836;28;20078;-90
2023/05/29 06:50:28;;;;;;;39.05;20.27;;;;;;;20.12;72.39;101258.19;4975856;28;20034;-93
2023/05/29 06:52:54;;;;;;;12.68;7.65;;;;;;;20.04;73.29;101238.59;4974707;28;20456;-91
2023/05/29 06:55:20;;;;;;;8.32;5.13;;;;;;;20.03;72.76;101236.09;4978908;28;20058;-93
2023/05/29 06:57:46;;;;;;;8.52;5.65;;;;;;;20.22;75.25;101238.13;4990055;28;20034;-90
2023/05/29 07:00:12;;;;;;;11.13;5.85;;;;;;;20.25;73.88;101237.84;4958062;28;20063;-89
2023/05/29 07:02:37;;;;;;;11.13;5.50;;;;;;;20.55;73.75;101253.84;4989122;28;20027;-91
2023/05/29 07:05:03;;;;;;;8.25;5.82;;;;;;;20.51;73.86;101244.53;4955509;28;20037;-90
2023/05/29 07:07:29;;;;;;;20.35;5.63;;;;;;;20.54;71.51;101240.81;4975952;28;20092;-87
2023/05/29 07:09:54;;;;;;;8.63;5.20;;;;;;;20.59;71.96;101250.00;4990814;28;20030;-88
2023/05/29 07:12:21;;;;;;;11.07;5.72;;;;;;;20.53;72.06;101239.13;4986335;28;20026;-89
2023/05/29 07:14:48;;;;;;;11.38;5.90;;;;;;;20.70;72.42;101246.50;4973553;28;20507;-88
2023/05/29 07:17:14;;;;;;;8.35;4.65;;;;;;;20.91;70.62;101242.09;4989346;28;20045;-81
2023/05/29 07:19:40;;;;;;;12.32;5.15;;;;;;;21.08;71.53;101253.84;4990827;28;20061;-81
2023/05/29 07:22:05;;;;;;;10.35;5.55;;;;;;;21.10;71.32;101256.34;4994614;28;20026;-84
2023/05/29 07:24:31;;;;;;;8.13;5.00;;;;;;;21.19;70.25;101255.59;4979981;28;20041;-84
2023/05/29 07:26:56;;;;;;;8.07;5.25;;;;;;;21.20;67.98;101249.38;4989343;28;20026;-84
2023/05/29 07:29:23;;;;;;;7.30;4.80;;;;;;;21.27;69.08;101240.03;4986574;28;20432;-85
2023/05/29 07:31:49;;;;;;;9.88;6.50;;;;;;;21.39;69.99;101249.50;4971543;28;20424;-86
2023/05/29 07:34:14;;;;;;;11.57;5.88;;;;;;;21.49;67.56;101262.72;4979633;28;20137;-93
2023/05/29 07:36:56;;;;;;;7.72;4.63;;;;;;;21.58;66.86;101269.03;4982820;28;20034;-91
2023/05/29 07:39:21;;;;;;;6.57;4.70;;;;;;;21.39;66.57;101265.31;4988819;28;20400;-90
2023/05/29 07:41:47;;;;;;;8.27;4.78;;;;;;;21.28;66.61;101257.50;4977781;28;20286;-90
2023/05/29 07:44:12;;;;;;;8.80;4.85;;;;;;;21.17;67.47;101265.41;4950001;28;20770;-91
2023/05/29 07:46:38;;;;;;;7.57;4.80;;;;;;;21.12;66.56;101268.41;4985962;28;20455;-91
2023/05/29 07:49:03;;;;;;;7.03;4.60;;;;;;;21.02;67.83;101261.41;4989831;28;20026;-86
2023/05/29 07:51:29;;;;;;;9.15;5.97;;;;;;;21.11;68.15;101276.44;4988548;28;20034;-87
2023/05/29 07:53:54;;;;;;;14.38;5.50;;;;;;;21.04;69.19;101270.88;4987824;28;20021;-91
2023/05/29 07:56:19;;;;;;;8.00;5.50;;;;;;;21.35;69.47;101269.19;4953197;28;20170;-93
2023/05/29 07:58:46;;;;;;;15.98;11.18;;;;;;;21.31;69.21;101270.38;4986943;28;20038;-92
2023/05/29 08:01:12;;;;;;;12.82;7.75;;;;;;;21.45;68.79;101263.97;4974581;28;20093;-92
2023/05/29 08:03:37;;;;;;;12.93;5.57;;;;;;;21.65;68.31;101278.91;4971124;28;20045;-88
2023/05/29 08:06:03;;;;;;;8.27;5.88;;;;;;;21.64;67.45;101266.72;4988482;28;20065;-92
2023/05/29 08:08:30;;;;;;;14.10;5.90;;;;;;;21.73;67.82;101278.25;4974298;28;20045;-93
2023/05/29 08:10:55;;;;;;;9.15;5.28;;;;;;;21.82;67.78;101264.28;4998529;28;20070;-90
2023/05/29 08:13:20;;;;;;;16.63;6.53;;;;;;;21.81;66.22;101267.03;4995957;28;20045;-88
2023/05/29 08:15:46;;;;;;;12.15;5.95;;;;;;;21.93;66.36;101284.44;4973463;28;20034;-88
2023/05/29 08:20:56;;;;;;;13.98;8.10;;;;;;;22.18;64.36;101277.91;4997111;28;20077;-91
2023/05/29 08:23:22;;;;;;;8.60;5.30;;;;;;;22.11;65.47;101271.47;4995309;28;20030;-91
2023/05/29 08:25:48;;;;;;;8.57;5.53;;;;;;;22.26;66.11;101278.06;4974231;28;20049;-91
2023/05/29 08:28:14;;;;;;;11.82;5.63;;;;;;;22.29;64.35;101270.72;4990515;28;20023;-91
2023/05/29 08:30:40;;;;;;;10.20;5.35;;;;;;;22.37;64.43;101275.31;4976436;28;20034;-90
2023/05/29 08:33:06;;;;;;;6.82;4.72;;;;;;;22.39;64.19;101256.72;4979956;28;20061;-91
2023/05/29 08:35:32;;;;;;;9.23;5.90;;;;;;;22.47;64.55;101260.34;4984517;28;20443;-91
2023/05/29 08:37:58;;;;;;;12.15;5.60;;;;;;;22.61;64.56;101264.38;4974449;28;20050;-95
2023/05/29 08:40:23;;;;;;;13.93;5.85;;;;;;;22.69;62.72;101255.78;4989755;28;20038;-87
2023/05/29 08:43:10;;;;;;;8.25;5.32;;;;;;;22.88;61.40;101261.09;4968154;28;20037;-86
2023/05/29 08:45:36;;;;;;;11.77;8.45;;;;;;;22.83;61.78;101255.38;4982871;28;20492;-88
2023/05/29 08:48:02;;;;;;;8.07;5.97;;;;;;;22.86;60.56;101240.13;4977785;28;20022;-86
2023/05/29 08:50:27;;;;;;;8.35;5.80;;;;;;;22.93;61.23;101243.03;4956222;28;20109;-87
2023/05/29 08:52:53;;;;;;;7.63;5.43;;;;;;;23.08;60.72;101240.78;4988756;28;20045;-92
2023/05/29 08:55:18;;;;;;;7.75;5.10;;;;;;;23.14;60.58;101233.16;4969857;28;20427;-89
2023/05/29 08:57:44;;;;;;;8.23;4.80;;;;;;;23.32;58.85;101253.56;4981591;28;20041;-91
2023/05/29 09:00:15;;;;;;;6.43;4.43;;;;;;;23.41;56.31;101242.13;4980614;28;20042;-91
2023/05/29 09:02:43;;;;;;;8.27;5.50;;;;;;;23.55;57.93;101239.03;4976009;28;20389;-88
2023/05/29 09:05:09;;;;;;;8.43;4.75;;;;;;;23.56;57.33;101234.56;4990508;28;20026;-86
2023/05/29 09:07:38;;;;;;;7.60;5.05;;;;;;;23.33;57.75;101242.84;4961324;28;20035;-91
2023/05/29 09:10:06;;;;;;;7.57;4.63;;;;;;;23.13;58.28;101244.69;4980922;28;20113;-94
2023/05/29 09:12:32;;;;;;;10.38;4.78;;;;;;;22.90;58.78;101230.13;4994606;28;20033;-86
2023/05/29 09:14:58;;;;;;;12.85;8.98;;;;;;;22.74;57.85;101222.75;4975881;28;20072;-87
2023/05/29 09:17:23;;;;;;;5.95;4.30;;;;;;;22.99;57.54;101244.28;4975705;28;20038;-90
2023/05/29 09:19:49;;;;;;;5.95;3.97;;;;;;;23.11;57.45;101238.72;5000422;28;20501;-88
2023/05/29 09:22:15;;;;;;;5.85;4.40;;;;;;;23.16;57.89;101238.28;4991067;28;20113;-90
2023/05/29 09:24:41;;;;;;;7.47;3.92;;;;;;;23.37;57.10;101233.66;4989632;28;20125;-91
2023/05/29 09:27:08;;;;;;;10.43;3.92;;;;;;;23.40;57.52;101227.25;4971129;28;20061;-89
2023/05/29 09:29:37;;;;;;;11.00;3.45;;;;;;;23.28;55.82;101225.75;4986510;28;20030;-89
2023/05/29 09:32:07;;;;;;;16.67;9.80;;;;;;;23.14;56.71;101230.50;4974025;28;20030;-86
2023/05/29 09:34:32;;;;;;;10.90;5.78;;;;;;;22.98;57.55;101235.53;4972723;28;20230;-86
2023/05/29 09:37:08;;;;;;;9.55;5.32;;;;;;;22.89;60.31;101231.91;4989569;28;20393;-90
2023/05/29 09:39:49;;;;;;;6.32;4.55;;;;;;;22.83;60.80;101236.91;4982623;28;20044;-86
2023/05/29 09:42:16;;;;;;;5.82;4.07;;;;;;;22.56;61.03;101227.03;4983110;28;20496;-87
2023/05/29 09:44:44;;;;;;;5.05;3.65;;;;;;;22.27;64.21;101224.38;4974216;28;20042;-87
2023/05/29 09:47:14;;;;;;;5.15;3.88;;;;;;;21.97;65.51;101212.91;4993306;28;20065;-88
2023/05/29 09:49:44;;;;;;;6.97;4.43;;;;;;;22.08;66.65;101235.69;4971020;28;20046;-89
2023/05/29 09:52:16;;;;;;;5.97;4.32;;;;;;;22.16;67.74;101242.94;4956099;28;20400;-86
2023/05/29 09:54:45;;;;;;;5.60;4.43;;;;;;;21.90;66.43;101232.84;4966002;28;20081;-85
2023/05/29 09:57:12;;;;;;;6.53;4.28;;;;;;;21.88;67.73;101240.03;4974163;28;20496;-85
2023/05/29 09:59:38;;;;;;;7.63;4.47;;;;;;;21.63;69.11;101225.56;4969700;28;20053;-87
2023/05/29 10:02:04;;;;;;;6.32;4.57;;;;;;;21.67;69.11;101220.84;4972887;28;20038;-86
2023/05/29 10:04:33;;;;;;;7.82;4.70;;;;;;;21.82;69.23;101245.00;4992511;28;20054;-90
2023/05/29 10:07:02;;;;;;;6.50;4.57;;;;;;;21.74;69.16;101237.78;4990266;28;20032;-89
2023/05/29 10:09:28;;;;;;;10.68;5.47;;;;;;;21.79;67.37;101238.22;4972789;28;20398;-84
2023/05/29 10:11:57;;;;;;;9.07;4.85;;;;;;;21.73;68.47;101220.31;4972896;28;20045;-90
2023/05/29 10:14:23;;;;;;;7.65;4.88;;;;;;;21.80;67.35;101210.06;4984862;28;20098;-86
2023/05/29 10:16:50;;;;;;;6.85;4.63;;;;;;;22.00;68.14;101232.88;4981133;28;20062;-87
2023/05/29 10:19:22;;;;;;;8.82;4.63;;;;;;;22.07;67.06;101227.94;4992791;28;20130;-88
2023/05/29 10:21:47;;;;;;;8.82;4.68;;;;;;;21.99;65.40;101221.50;4991134;28;20031;-87
2023/05/29 10:24:13;;;;;;;8.32;4.68;;;;;;;22.12;65.69;101218.66;4972055;28;20050;-92
2023/05/29 10:26:39;;;;;;;7.05;4.35;;;;;;;22.09;65.94;101200.47;4974252;28;20058;-93
2023/05/29 10:29:10;;;;;;;6.68;5.05;;;;;;;22.36;67.31;101210.38;4991692;28;20031;-89
2023/05/29 10:31:58;;;;;;;32.47;16.30;;;;;;;22.71;67.29;101207.19;4990943;28;20042;-88
2023/05/29 10:34:53;;;;;;;8.65;5.70;;;;;;;22.74;65.30;101211.38;4968801;28;20043;-93
2023/05/29 10:37:30;;;;;;;6.90;4.72;;;;;;;22.77;65.67;101205.81;4983536;28;20030;-90
2023/05/29 10:40:06;;;;;;;6.40;4.05;;;;;;;22.79;62.28;101199.41;4979319;28;20113;-86
2023/05/29 10:42:38;;;;;;;13.13;4.32;;;;;;;22.94;62.17;101206.94;4945698;28;20026;-87
2023/05/29 10:45:04;;;;;;;5.68;4.30;;;;;;;22.99;61.83;101178.31;4989786;28;20514;-91
2023/05/29 10:47:30;;;;;;;7.55;4.63;;;;;;;23.34;63.18;101196.16;4990085;28;20033;-87
2023/05/29 10:49:59;;;;;;;9.65;4.88;;;;;;;23.53;60.49;101198.72;4990002;28;20042;-90
2023/05/29 10:52:25;;;;;;;7.95;4.15;;;;;;;23.59;59.95;101192.88;4973911;28;20026;-90
2023/05/29 10:54:52;;;;;;;6.40;3.85;;;;;;;23.78;60.36;101197.25;4975429;28;20884;-87
2023/05/29 10:57:18;;;;;;;6.85;4.07;;;;;;;23.83;59.60;101194.16;4974648;28;20049;-90
2023/05/29 10:59:45;;;;;;;5.18;3.72;;;;;;;23.72;57.63;101174.91;4957111;28;20034;-89
2023/05/29 11:02:10;;;;;;;5.32;3.40;;;;;;;23.84;57.76;101190.56;4980085;28;20062;-88
2023/05/29 11:04:36;;;;;;;7.20;3.70;;;;;;;23.89;56.07;101185.63;4991454;28;20142;-88
2023/05/29 11:07:06;;;;;;;5.90;3.35;;;;;;;23.94;54.84;101186.88;4990476;28;20407;-89
2023/05/29 11:09:35;;;;;;;5.85;3.28;;;;;;;23.98;55.46;101187.41;4988533;28;20129;-87
2023/05/29 11:12:35;;;;;;;4.75;3.50;;;;;;;24.01;53.15;101177.38;4963195;28;20117;-89
2023/05/29 11:15:12;;;;;;;4.80;3.10;;;;;;;23.97;54.49;101175.16;4986955;28;20025;-87
2023/05/29 11:17:37;;;;;;;5.47;3.95;;;;;;;24.05;54.79;101167.34;4955359;28;20121;-86
2023/05/29 11:20:07;;;;;;;4.97;3.30;;;;;;;24.01;52.64;101165.97;4974559;28;20117;-86
2023/05/29 11:22:48;;;;;;;15.07;8.90;;;;;;;23.98;53.62;101155.69;4972417;28;20105;-90